sensor_id;sensor_type;location;lat;lon;timestamp;P1;durP1;ratioP1;P2;durP2;ratioP2
7213;SDS011;3648;50.614;13.830;2023-10-08T00:02:04;4.93;;;2.80;;
7213;SDS011;3648;50.614;13.830;2023-10-08T00:04:33;4.10;;;2.90;;
7213;SDS011;3648;50.614;13.830;2023-10-08T00:07:02;4.87;;;2.70;;
7213;SDS011;3648;50.614;13.830;2023-10-08T00:09:32;5.30;;;2.50;;
7213;SDS011;3648;50.614;13.830;2023-10-08T00:12:01;4.03;;;2.83;;
7213;SDS011;3648;50.614;13.830;2023-10-08T00:14:29;5.40;;;2.57;;
7213;SDS011;3648;50.614;13.830;2023-10-08T00:16:58;5.30;;;3.00;;
7213;SDS011;3648;50.614;13.830;2023-10-08T00:19:25;5.03;;;3.10;;
7213;SDS011;3648;50.614;13.830;2023-10-08T00:22:00;4.90;;;2.90;;
7213;SDS011;3648;50.614;13.830;2023-10-08T00:24:31;7.10;;;3.27;;
7213;SDS011;3648;50.614;13.830;2023-10-08T00:26:59;5.77;;;3.30;;
7213;SDS011;3648;50.614;13.830;2023-10-08T00:29:27;5.20;;;2.83;;
7213;SDS011;3648;50.614;13.830;2023-10-08T00:31:58;5.83;;;2.97;;
7213;SDS011;3648;50.614;13.830;2023-10-08T00:34:27;4.30;;;2.83;;
7213;SDS011;3648;50.614;13.830;2023-10-08T00:36:54;5.50;;;2.90;;
7213;SDS011;3648;50.614;13.830;2023-10-08T00:39:24;4.70;;;3.13;;
7213;SDS011;3648;50.614;13.830;2023-10-08T00:41:52;4.70;;;2.57;;
7213;SDS011;3648;50.614;13.830;2023-10-08T00:44:23;4.70;;;2.73;;
7213;SDS011;3648;50.614;13.830;2023-10-08T00:46:55;4.17;;;2.90;;
7213;SDS011;3648;50.614;13.830;2023-10-08T00:49:25;4.70;;;2.93;;
7213;SDS011;3648;50.614;13.830;2023-10-08T00:52:13;4.90;;;3.00;;
7213;SDS011;3648;50.614;13.830;2023-10-08T00:55:02;9.37;;;3.07;;
7213;SDS011;3648;50.614;13.830;2023-10-08T00:57:49;6.10;;;3.13;;
7213;SDS011;3648;50.614;13.830;2023-10-08T01:00:33;4.50;;;2.90;;
7213;SDS011;3648;50.614;13.830;2023-10-08T01:03:06;6.33;;;3.60;;
7213;SDS011;3648;50.614;13.830;2023-10-08T01:05:40;6.13;;;3.20;;
7213;SDS011;3648;50.614;13.830;2023-10-08T01:08:12;9.13;;;3.63;;
7213;SDS011;3648;50.614;13.830;2023-10-08T01:10:44;3.57;;;2.80;;
7213;SDS011;3648;50.614;13.830;2023-10-08T01:13:12;4.50;;;2.90;;
7213;SDS011;3648;50.614;13.830;2023-10-08T01:15:44;5.63;;;2.77;;
7213;SDS011;3648;50.614;13.830;2023-10-08T01:18:15;4.07;;;2.77;;
7213;SDS011;3648;50.614;13.830;2023-10-08T01:20:51;4.27;;;2.80;;
7213;SDS011;3648;50.614;13.830;2023-10-08T01:23:20;6.00;;;2.83;;
7213;SDS011;3648;50.614;13.830;2023-10-08T01:25:48;4.93;;;2.97;;
7213;SDS011;3648;50.614;13.830;2023-10-08T01:28:17;7.17;;;3.10;;
7213;SDS011;3648;50.614;13.830;2023-10-08T01:30:50;4.93;;;3.20;;
7213;SDS011;3648;50.614;13.830;2023-10-08T01:33:19;7.10;;;3.43;;
7213;SDS011;3648;50.614;13.830;2023-10-08T01:35:53;7.50;;;4.33;;
7213;SDS011;3648;50.614;13.830;2023-10-08T01:38:28;5.10;;;3.37;;
7213;SDS011;3648;50.614;13.830;2023-10-08T01:40:56;6.27;;;3.27;;
7213;SDS011;3648;50.614;13.830;2023-10-08T01:43:28;4.83;;;2.73;;
7213;SDS011;3648;50.614;13.830;2023-10-08T01:45:55;4.50;;;3.20;;
7213;SDS011;3648;50.614;13.830;2023-10-08T01:48:22;4.27;;;3.07;;
7213;SDS011;3648;50.614;13.830;2023-10-08T01:50:54;4.93;;;3.00;;
7213;SDS011;3648;50.614;13.830;2023-10-08T01:53:27;6.53;;;3.13;;
7213;SDS011;3648;50.614;13.830;2023-10-08T01:55:55;5.73;;;3.40;;
7213;SDS011;3648;50.614;13.830;2023-10-08T01:58:23;6.30;;;3.57;;
7213;SDS011;3648;50.614;13.830;2023-10-08T02:00:50;6.53;;;3.50;;
7213;SDS011;3648;50.614;13.830;2023-10-08T02:03:19;5.10;;;3.67;;
7213;SDS011;3648;50.614;13.830;2023-10-08T02:05:48;5.50;;;3.30;;
7213;SDS011;3648;50.614;13.830;2023-10-08T02:08:18;5.43;;;3.47;;
7213;SDS011;3648;50.614;13.830;2023-10-08T02:10:47;3.83;;;2.87;;
7213;SDS011;3648;50.614;13.830;2023-10-08T02:13:14;6.03;;;3.30;;
7213;SDS011;3648;50.614;13.830;2023-10-08T02:15:44;5.13;;;2.97;;
7213;SDS011;3648;50.614;13.830;2023-10-08T02:18:16;5.90;;;3.17;;
7213;SDS011;3648;50.614;13.830;2023-10-08T02:20:44;7.97;;;3.57;;
7213;SDS011;3648;50.614;13.830;2023-10-08T02:23:11;4.33;;;3.00;;
7213;SDS011;3648;50.614;13.830;2023-10-08T02:25:38;6.67;;;3.43;;
7213;SDS011;3648;50.614;13.830;2023-10-08T02:28:07;6.77;;;3.47;;
7213;SDS011;3648;50.614;13.830;2023-10-08T02:30:37;4.23;;;3.03;;
7213;SDS011;3648;50.614;13.830;2023-10-08T02:33:05;3.83;;;2.43;;
7213;SDS011;3648;50.614;13.830;2023-10-08T02:35:39;4.23;;;3.07;;
7213;SDS011;3648;50.614;13.830;2023-10-08T02:38:07;5.50;;;3.23;;
7213;SDS011;3648;50.614;13.830;2023-10-08T02:40:37;6.83;;;2.93;;
7213;SDS011;3648;50.614;13.830;2023-10-08T02:43:11;5.20;;;3.53;;
7213;SDS011;3648;50.614;13.830;2023-10-08T02:45:39;6.30;;;3.37;;
7213;SDS011;3648;50.614;13.830;2023-10-08T02:48:06;3.97;;;2.70;;
7213;SDS011;3648;50.614;13.830;2023-10-08T02:50:37;6.47;;;3.10;;
7213;SDS011;3648;50.614;13.830;2023-10-08T02:53:05;9.10;;;3.27;;
7213;SDS011;3648;50.614;13.830;2023-10-08T02:55:36;5.77;;;3.03;;
7213;SDS011;3648;50.614;13.830;2023-10-08T02:58:07;5.30;;;3.43;;
7213;SDS011;3648;50.614;13.830;2023-10-08T03:00:40;4.80;;;3.57;;
7213;SDS011;3648;50.614;13.830;2023-10-08T03:03:08;5.70;;;3.80;;
7213;SDS011;3648;50.614;13.830;2023-10-08T03:05:41;7.73;;;3.40;;
7213;SDS011;3648;50.614;13.830;2023-10-08T03:08:11;7.53;;;3.30;;
7213;SDS011;3648;50.614;13.830;2023-10-08T03:10:38;5.27;;;3.10;;
7213;SDS011;3648;50.614;13.830;2023-10-08T03:13:06;3.50;;;2.90;;
7213;SDS011;3648;50.614;13.830;2023-10-08T03:15:36;6.77;;;3.07;;
7213;SDS011;3648;50.614;13.830;2023-10-08T03:18:08;3.73;;;2.80;;
7213;SDS011;3648;50.614;13.830;2023-10-08T03:20:39;7.67;;;3.50;;
7213;SDS011;3648;50.614;13.830;2023-10-08T03:23:09;3.50;;;2.60;;
7213;SDS011;3648;50.614;13.830;2023-10-08T03:25:52;6.50;;;3.20;;
7213;SDS011;3648;50.614;13.830;2023-10-08T03:28:24;4.27;;;3.10;;
7213;SDS011;3648;50.614;13.830;2023-10-08T03:30:53;4.47;;;2.93;;
7213;SDS011;3648;50.614;13.830;2023-10-08T03:33:30;5.13;;;3.13;;
7213;SDS011;3648;50.614;13.830;2023-10-08T03:36:00;3.53;;;1.73;;
7213;SDS011;3648;50.614;13.830;2023-10-08T03:38:34;1.70;;;0.80;;
7213;SDS011;3648;50.614;13.830;2023-10-08T03:41:16;0.70;;;0.50;;
7213;SDS011;3648;50.614;13.830;2023-10-08T03:43:45;0.50;;;0.50;;
7213;SDS011;3648;50.614;13.830;2023-10-08T03:46:23;0.97;;;0.40;;
7213;SDS011;3648;50.614;13.830;2023-10-08T03:48:52;1.17;;;0.40;;
7213;SDS011;3648;50.614;13.830;2023-10-08T03:51:22;0.30;;;0.30;;
7213;SDS011;3648;50.614;13.830;2023-10-08T03:53:53;0.30;;;0.30;;
7213;SDS011;3648;50.614;13.830;2023-10-08T03:56:41;0.20;;;0.20;;
7213;SDS011;3648;50.614;13.830;2023-10-08T03:59:11;0.90;;;0.27;;
7213;SDS011;3648;50.614;13.830;2023-10-08T04:01:39;0.20;;;0.20;;
7213;SDS011;3648;50.614;13.830;2023-10-08T04:04:09;0.20;;;0.20;;
7213;SDS011;3648;50.614;13.830;2023-10-08T04:06:39;0.20;;;0.20;;
7213;SDS011;3648;50.614;13.830;2023-10-08T04:09:13;0.20;;;0.20;;
7213;SDS011;3648;50.614;13.830;2023-10-08T04:11:49;0.10;;;0.10;;
7213;SDS011;3648;50.614;13.830;2023-10-08T04:14:18;0.20;;;0.20;;
7213;SDS011;3648;50.614;13.830;2023-10-08T04:16:46;0.20;;;0.20;;
7213;SDS011;3648;50.614;13.830;2023-10-08T04:19:18;0.20;;;0.20;;
7213;SDS011;3648;50.614;13.830;2023-10-08T04:21:46;0.20;;;0.20;;
7213;SDS011;3648;50.614;13.830;2023-10-08T04:24:20;0.20;;;0.20;;
7213;SDS011;3648;50.614;13.830;2023-10-08T04:26:53;0.20;;;0.20;;
7213;SDS011;3648;50.614;13.830;2023-10-08T04:29:23;0.13;;;0.13;;
7213;SDS011;3648;50.614;13.830;2023-10-08T04:31:51;0.20;;;0.20;;
7213;SDS011;3648;50.614;13.830;2023-10-08T04:34:34;1.13;;;0.20;;
7213;SDS011;3648;50.614;13.830;2023-10-08T04:37:01;0.20;;;0.20;;
7213;SDS011;3648;50.614;13.830;2023-10-08T04:39:29;0.20;;;0.20;;
7213;SDS011;3648;50.614;13.830;2023-10-08T04:41:59;0.90;;;0.27;;
7213;SDS011;3648;50.614;13.830;2023-10-08T04:44:31;0.20;;;0.20;;
7213;SDS011;3648;50.614;13.830;2023-10-08T04:46:59;0.20;;;0.20;;
7213;SDS011;3648;50.614;13.830;2023-10-08T04:49:32;0.10;;;0.10;;
7213;SDS011;3648;50.614;13.830;2023-10-08T04:52:04;0.20;;;0.20;;
7213;SDS011;3648;50.614;13.830;2023-10-08T04:54:39;0.20;;;0.20;;
7213;SDS011;3648;50.614;13.830;2023-10-08T04:57:16;0.13;;;0.13;;
7213;SDS011;3648;50.614;13.830;2023-10-08T04:59:47;0.20;;;0.20;;
7213;SDS011;3648;50.614;13.830;2023-10-08T05:02:15;0.20;;;0.20;;
7213;SDS011;3648;50.614;13.830;2023-10-08T05:04:48;0.20;;;0.20;;
7213;SDS011;3648;50.614;13.830;2023-10-08T05:07:43;0.40;;;0.30;;
7213;SDS011;3648;50.614;13.830;2023-10-08T05:10:42;0.20;;;0.20;;
7213;SDS011;3648;50.614;13.830;2023-10-08T05:13:42;0.20;;;0.20;;
7213;SDS011;3648;50.614;13.830;2023-10-08T05:16:21;0.20;;;0.20;;
7213;SDS011;3648;50.614;13.830;2023-10-08T05:19:02;0.30;;;0.30;;
7213;SDS011;3648;50.614;13.830;2023-10-08T05:21:40;0.33;;;0.33;;
7213;SDS011;3648;50.614;13.830;2023-10-08T05:24:17;0.20;;;0.20;;
7213;SDS011;3648;50.614;13.830;2023-10-08T05:26:53;0.30;;;0.30;;
7213;SDS011;3648;50.614;13.830;2023-10-08T05:29:40;0.30;;;0.30;;
7213;SDS011;3648;50.614;13.830;2023-10-08T05:32:36;0.30;;;0.30;;
7213;SDS011;3648;50.614;13.830;2023-10-08T05:35:09;0.40;;;0.30;;
7213;SDS011;3648;50.614;13.830;2023-10-08T05:37:55;0.93;;;0.20;;
7213;SDS011;3648;50.614;13.830;2023-10-08T05:40:38;0.20;;;0.20;;
7213;SDS011;3648;50.614;13.830;2023-10-08T05:43:19;0.57;;;0.40;;
7213;SDS011;3648;50.614;13.830;2023-10-08T05:46:10;0.20;;;0.20;;
7213;SDS011;3648;50.614;13.830;2023-10-08T05:49:04;0.20;;;0.20;;
7213;SDS011;3648;50.614;13.830;2023-10-08T05:51:51;0.30;;;0.30;;
7213;SDS011;3648;50.614;13.830;2023-10-08T05:54:33;0.47;;;0.30;;
7213;SDS011;3648;50.614;13.830;2023-10-08T05:57:12;0.27;;;0.27;;
7213;SDS011;3648;50.614;13.830;2023-10-08T05:59:50;0.30;;;0.30;;
7213;SDS011;3648;50.614;13.830;2023-10-08T06:02:34;0.20;;;0.20;;
7213;SDS011;3648;50.614;13.830;2023-10-08T06:05:25;0.30;;;0.30;;
7213;SDS011;3648;50.614;13.830;2023-10-08T06:07:58;0.30;;;0.30;;
7213;SDS011;3648;50.614;13.830;2023-10-08T06:10:38;0.30;;;0.30;;
7213;SDS011;3648;50.614;13.830;2023-10-08T06:13:10;0.30;;;0.30;;
7213;SDS011;3648;50.614;13.830;2023-10-08T06:15:41;0.20;;;0.20;;
7213;SDS011;3648;50.614;13.830;2023-10-08T06:18:13;0.20;;;0.20;;
7213;SDS011;3648;50.614;13.830;2023-10-08T06:20:40;0.30;;;0.30;;
7213;SDS011;3648;50.614;13.830;2023-10-08T06:23:09;0.30;;;0.30;;
7213;SDS011;3648;50.614;13.830;2023-10-08T06:25:40;0.30;;;0.30;;
7213;SDS011;3648;50.614;13.830;2023-10-08T06:28:19;0.30;;;0.30;;
7213;SDS011;3648;50.614;13.830;2023-10-08T06:30:49;1.20;;;0.30;;
7213;SDS011;3648;50.614;13.830;2023-10-08T06:33:18;2.00;;;0.50;;
7213;SDS011;3648;50.614;13.830;2023-10-08T06:35:47;0.67;;;0.60;;
7213;SDS011;3648;50.614;13.830;2023-10-08T06:38:26;0.77;;;0.70;;
7213;SDS011;3648;50.614;13.830;2023-10-08T06:40:57;1.00;;;0.80;;
7213;SDS011;3648;50.614;13.830;2023-10-08T06:43:25;1.10;;;1.00;;
7213;SDS011;3648;50.614;13.830;2023-10-08T06:45:54;1.90;;;1.50;;
7213;SDS011;3648;50.614;13.830;2023-10-08T06:48:23;1.77;;;1.63;;
7213;SDS011;3648;50.614;13.830;2023-10-08T06:50:51;3.43;;;2.40;;
7213;SDS011;3648;50.614;13.830;2023-10-08T06:53:23;2.57;;;1.73;;
7213;SDS011;3648;50.614;13.830;2023-10-08T06:55:50;2.77;;;1.90;;
7213;SDS011;3648;50.614;13.830;2023-10-08T06:58:23;1.40;;;1.30;;
7213;SDS011;3648;50.614;13.830;2023-10-08T07:00:50;1.67;;;1.43;;
7213;SDS011;3648;50.614;13.830;2023-10-08T07:03:20;2.03;;;1.27;;
7213;SDS011;3648;50.614;13.830;2023-10-08T07:05:48;1.80;;;1.60;;
7213;SDS011;3648;50.614;13.830;2023-10-08T07:08:25;2.67;;;2.10;;
7213;SDS011;3648;50.614;13.830;2023-10-08T07:10:54;2.60;;;1.90;;
7213;SDS011;3648;50.614;13.830;2023-10-08T07:13:23;2.93;;;2.10;;
7213;SDS011;3648;50.614;13.830;2023-10-08T07:15:52;3.57;;;2.53;;
7213;SDS011;3648;50.614;13.830;2023-10-08T07:18:20;3.50;;;2.40;;
7213;SDS011;3648;50.614;13.830;2023-10-08T07:20:50;4.03;;;2.70;;
7213;SDS011;3648;50.614;13.830;2023-10-08T07:23:20;2.83;;;2.13;;
7213;SDS011;3648;50.614;13.830;2023-10-08T07:25:52;2.53;;;1.57;;
7213;SDS011;3648;50.614;13.830;2023-10-08T07:28:25;1.10;;;0.90;;
7213;SDS011;3648;50.614;13.830;2023-10-08T07:30:54;0.93;;;0.77;;
7213;SDS011;3648;50.614;13.830;2023-10-08T07:33:22;1.03;;;0.53;;
7213;SDS011;3648;50.614;13.830;2023-10-08T07:36:04;0.73;;;0.70;;
7213;SDS011;3648;50.614;13.830;2023-10-08T07:38:39;0.57;;;0.50;;
7213;SDS011;3648;50.614;13.830;2023-10-08T07:41:07;0.43;;;0.43;;
7213;SDS011;3648;50.614;13.830;2023-10-08T07:43:39;0.70;;;0.43;;
7213;SDS011;3648;50.614;13.830;2023-10-08T07:46:07;0.60;;;0.50;;
7213;SDS011;3648;50.614;13.830;2023-10-08T07:48:34;0.47;;;0.47;;
7213;SDS011;3648;50.614;13.830;2023-10-08T07:51:00;0.80;;;0.50;;
7213;SDS011;3648;50.614;13.830;2023-10-08T07:53:28;0.80;;;0.70;;
7213;SDS011;3648;50.614;13.830;2023-10-08T07:56:03;1.20;;;0.83;;
7213;SDS011;3648;50.614;13.830;2023-10-08T07:58:33;2.03;;;1.23;;
7213;SDS011;3648;50.614;13.830;2023-10-08T08:01:04;2.57;;;1.30;;
7213;SDS011;3648;50.614;13.830;2023-10-08T08:03:32;1.73;;;1.23;;
7213;SDS011;3648;50.614;13.830;2023-10-08T08:06:01;1.30;;;1.00;;
7213;SDS011;3648;50.614;13.830;2023-10-08T08:08:31;1.53;;;1.03;;
7213;SDS011;3648;50.614;13.830;2023-10-08T08:10:58;1.33;;;0.83;;
7213;SDS011;3648;50.614;13.830;2023-10-08T08:13:30;1.03;;;0.70;;
7213;SDS011;3648;50.614;13.830;2023-10-08T08:15:58;1.43;;;0.80;;
7213;SDS011;3648;50.614;13.830;2023-10-08T08:18:36;2.73;;;1.13;;
7213;SDS011;3648;50.614;13.830;2023-10-08T08:21:03;1.10;;;0.90;;
7213;SDS011;3648;50.614;13.830;2023-10-08T08:23:39;1.83;;;1.10;;
7213;SDS011;3648;50.614;13.830;2023-10-08T08:26:06;1.80;;;0.90;;
7213;SDS011;3648;50.614;13.830;2023-10-08T08:28:38;1.23;;;1.03;;
7213;SDS011;3648;50.614;13.830;2023-10-08T08:31:05;1.43;;;1.00;;
7213;SDS011;3648;50.614;13.830;2023-10-08T08:33:43;2.37;;;1.30;;
7213;SDS011;3648;50.614;13.830;2023-10-08T08:36:21;2.87;;;1.03;;
7213;SDS011;3648;50.614;13.830;2023-10-08T08:38:50;1.23;;;1.03;;
7213;SDS011;3648;50.614;13.830;2023-10-08T08:41:17;2.47;;;1.30;;
7213;SDS011;3648;50.614;13.830;2023-10-08T08:43:49;4.07;;;1.60;;
7213;SDS011;3648;50.614;13.830;2023-10-08T08:46:23;2.77;;;1.77;;
7213;SDS011;3648;50.614;13.830;2023-10-08T08:48:55;2.67;;;1.40;;
7213;SDS011;3648;50.614;13.830;2023-10-08T08:51:27;3.87;;;1.93;;
7213;SDS011;3648;50.614;13.830;2023-10-08T08:53:56;4.00;;;1.77;;
7213;SDS011;3648;50.614;13.830;2023-10-08T08:56:27;1.93;;;1.50;;
7213;SDS011;3648;50.614;13.830;2023-10-08T08:58:59;3.30;;;1.67;;
7213;SDS011;3648;50.614;13.830;2023-10-08T09:01:27;1.90;;;1.10;;
7213;SDS011;3648;50.614;13.830;2023-10-08T09:04:00;2.63;;;1.70;;
7213;SDS011;3648;50.614;13.830;2023-10-08T09:06:30;2.67;;;1.50;;
7213;SDS011;3648;50.614;13.830;2023-10-08T09:08:59;1.67;;;1.10;;
7213;SDS011;3648;50.614;13.830;2023-10-08T09:11:39;1.57;;;0.90;;
7213;SDS011;3648;50.614;13.830;2023-10-08T09:14:08;1.70;;;1.07;;
7213;SDS011;3648;50.614;13.830;2023-10-08T09:16:37;1.57;;;1.00;;
7213;SDS011;3648;50.614;13.830;2023-10-08T09:19:05;2.67;;;1.03;;
7213;SDS011;3648;50.614;13.830;2023-10-08T09:21:37;2.03;;;1.43;;
7213;SDS011;3648;50.614;13.830;2023-10-08T09:24:04;1.33;;;1.20;;
7213;SDS011;3648;50.614;13.830;2023-10-08T09:26:36;1.77;;;1.10;;
7213;SDS011;3648;50.614;13.830;2023-10-08T09:29:05;2.03;;;1.13;;
7213;SDS011;3648;50.614;13.830;2023-10-08T09:31:33;2.07;;;1.23;;
7213;SDS011;3648;50.614;13.830;2023-10-08T09:34:02;2.20;;;1.23;;
7213;SDS011;3648;50.614;13.830;2023-10-08T09:36:32;2.53;;;1.13;;
7213;SDS011;3648;50.614;13.830;2023-10-08T09:39:00;1.60;;;1.10;;
7213;SDS011;3648;50.614;13.830;2023-10-08T09:41:29;1.83;;;1.40;;
7213;SDS011;3648;50.614;13.830;2023-10-08T09:43:58;2.67;;;1.33;;
7213;SDS011;3648;50.614;13.830;2023-10-08T09:46:29;2.47;;;1.37;;
7213;SDS011;3648;50.614;13.830;2023-10-08T09:48:59;4.07;;;1.23;;
7213;SDS011;3648;50.614;13.830;2023-10-08T09:51:28;3.53;;;1.83;;
7213;SDS011;3648;50.614;13.830;2023-10-08T09:54:01;2.50;;;1.43;;
7213;SDS011;3648;50.614;13.830;2023-10-08T09:56:35;3.33;;;1.90;;
7213;SDS011;3648;50.614;13.830;2023-10-08T09:59:05;5.27;;;2.90;;
7213;SDS011;3648;50.614;13.830;2023-10-08T10:01:34;7.40;;;2.40;;
7213;SDS011;3648;50.614;13.830;2023-10-08T10:04:05;4.47;;;2.30;;
7213;SDS011;3648;50.614;13.830;2023-10-08T10:06:33;4.70;;;2.10;;
7213;SDS011;3648;50.614;13.830;2023-10-08T10:09:03;2.87;;;1.60;;
7213;SDS011;3648;50.614;13.830;2023-10-08T10:11:35;2.20;;;1.53;;
7213;SDS011;3648;50.614;13.830;2023-10-08T10:14:02;5.17;;;1.60;;
7213;SDS011;3648;50.614;13.830;2023-10-08T10:16:31;7.17;;;5.50;;
7213;SDS011;3648;50.614;13.830;2023-10-08T10:19:02;3.07;;;2.40;;
7213;SDS011;3648;50.614;13.830;2023-10-08T10:21:32;3.80;;;1.70;;
7213;SDS011;3648;50.614;13.830;2023-10-08T10:24:00;3.17;;;2.03;;
7213;SDS011;3648;50.614;13.830;2023-10-08T10:26:32;3.40;;;2.00;;
7213;SDS011;3648;50.614;13.830;2023-10-08T10:31:45;2.77;;;2.00;;
7213;SDS011;3648;50.614;13.830;2023-10-08T10:34:15;8.63;;;5.60;;
7213;SDS011;3648;50.614;13.830;2023-10-08T10:36:45;4.73;;;2.80;;
7213;SDS011;3648;50.614;13.830;2023-10-08T10:39:15;3.20;;;2.90;;
7213;SDS011;3648;50.614;13.830;2023-10-08T10:41:52;2.87;;;2.33;;
7213;SDS011;3648;50.614;13.830;2023-10-08T10:44:26;3.67;;;2.30;;
7213;SDS011;3648;50.614;13.830;2023-10-08T10:46:54;6.93;;;2.00;;
7213;SDS011;3648;50.614;13.830;2023-10-08T10:49:36;4.23;;;2.00;;
7213;SDS011;3648;50.614;13.830;2023-10-08T10:52:13;2.50;;;1.77;;
7213;SDS011;3648;50.614;13.830;2023-10-08T10:54:43;3.13;;;2.13;;
7213;SDS011;3648;50.614;13.830;2023-10-08T10:57:25;1.87;;;1.70;;
7213;SDS011;3648;50.614;13.830;2023-10-08T11:00:01;3.10;;;1.97;;
7213;SDS011;3648;50.614;13.830;2023-10-08T11:02:44;1.90;;;1.70;;
7213;SDS011;3648;50.614;13.830;2023-10-08T11:05:14;4.07;;;1.90;;
7213;SDS011;3648;50.614;13.830;2023-10-08T11:07:45;2.70;;;2.03;;
7213;SDS011;3648;50.614;13.830;2023-10-08T11:10:13;4.17;;;2.17;;
7213;SDS011;3648;50.614;13.830;2023-10-08T11:12:42;4.40;;;2.10;;
7213;SDS011;3648;50.614;13.830;2023-10-08T11:15:12;4.93;;;2.23;;
7213;SDS011;3648;50.614;13.830;2023-10-08T11:17:41;2.17;;;1.83;;
7213;SDS011;3648;50.614;13.830;2023-10-08T11:20:22;4.60;;;2.27;;
7213;SDS011;3648;50.614;13.830;2023-10-08T11:22:50;3.30;;;2.63;;
7213;SDS011;3648;50.614;13.830;2023-10-08T11:25:22;2.87;;;2.10;;
7213;SDS011;3648;50.614;13.830;2023-10-08T11:27:57;3.73;;;2.37;;
7213;SDS011;3648;50.614;13.830;2023-10-08T11:30:27;4.37;;;1.87;;
7213;SDS011;3648;50.614;13.830;2023-10-08T11:32:57;3.13;;;1.97;;
7213;SDS011;3648;50.614;13.830;2023-10-08T11:35:24;3.80;;;2.33;;
7213;SDS011;3648;50.614;13.830;2023-10-08T11:37:58;3.97;;;2.07;;
7213;SDS011;3648;50.614;13.830;2023-10-08T11:40:26;3.10;;;2.00;;
7213;SDS011;3648;50.614;13.830;2023-10-08T11:42:55;3.67;;;2.30;;
7213;SDS011;3648;50.614;13.830;2023-10-08T11:45:24;2.90;;;1.90;;
7213;SDS011;3648;50.614;13.830;2023-10-08T11:47:53;3.43;;;2.00;;
7213;SDS011;3648;50.614;13.830;2023-10-08T11:50:28;8.37;;;2.47;;
7213;SDS011;3648;50.614;13.830;2023-10-08T11:53:00;2.87;;;1.63;;
7213;SDS011;3648;50.614;13.830;2023-10-08T11:55:28;3.27;;;2.00;;
7213;SDS011;3648;50.614;13.830;2023-10-08T11:58:01;2.77;;;1.80;;
7213;SDS011;3648;50.614;13.830;2023-10-08T12:00:35;3.17;;;1.70;;
7213;SDS011;3648;50.614;13.830;2023-10-08T12:03:09;2.63;;;2.03;;
7213;SDS011;3648;50.614;13.830;2023-10-08T12:05:37;2.57;;;1.97;;
7213;SDS011;3648;50.614;13.830;2023-10-08T12:08:12;3.00;;;1.80;;
7213;SDS011;3648;50.614;13.830;2023-10-08T12:10:41;3.60;;;1.90;;
7213;SDS011;3648;50.614;13.830;2023-10-08T12:13:12;4.17;;;2.27;;
7213;SDS011;3648;50.614;13.830;2023-10-08T12:15:41;3.80;;;2.07;;
7213;SDS011;3648;50.614;13.830;2023-10-08T12:18:09;4.40;;;2.13;;
7213;SDS011;3648;50.614;13.830;2023-10-08T12:20:40;3.80;;;2.50;;
7213;SDS011;3648;50.614;13.830;2023-10-08T12:23:11;3.40;;;1.93;;
7213;SDS011;3648;50.614;13.830;2023-10-08T12:25:48;3.73;;;1.73;;
7213;SDS011;3648;50.614;13.830;2023-10-08T12:28:18;2.33;;;1.97;;
7213;SDS011;3648;50.614;13.830;2023-10-08T12:30:48;4.30;;;2.27;;
7213;SDS011;3648;50.614;13.830;2023-10-08T12:33:17;3.80;;;2.20;;
7213;SDS011;3648;50.614;13.830;2023-10-08T12:35:45;2.97;;;1.53;;
7213;SDS011;3648;50.614;13.830;2023-10-08T12:38:12;3.20;;;2.37;;
7213;SDS011;3648;50.614;13.830;2023-10-08T12:40:40;3.33;;;1.70;;
7213;SDS011;3648;50.614;13.830;2023-10-08T12:43:19;2.70;;;1.80;;
7213;SDS011;3648;50.614;13.830;2023-10-08T12:45:46;2.90;;;1.90;;
7213;SDS011;3648;50.614;13.830;2023-10-08T12:48:20;5.40;;;2.57;;
7213;SDS011;3648;50.614;13.830;2023-10-08T12:50:47;3.40;;;2.43;;
7213;SDS011;3648;50.614;13.830;2023-10-08T12:53:21;2.90;;;2.10;;
7213;SDS011;3648;50.614;13.830;2023-10-08T12:55:52;2.90;;;2.30;;
7213;SDS011;3648;50.614;13.830;2023-10-08T12:58:24;4.83;;;2.70;;
7213;SDS011;3648;50.614;13.830;2023-10-08T13:00:54;4.63;;;2.67;;
7213;SDS011;3648;50.614;13.830;2023-10-08T13:03:26;3.33;;;2.33;;
7213;SDS011;3648;50.614;13.830;2023-10-08T13:05:56;5.13;;;2.80;;
7213;SDS011;3648;50.614;13.830;2023-10-08T13:08:29;2.77;;;2.13;;
7213;SDS011;3648;50.614;13.830;2023-10-08T13:10:56;2.73;;;1.97;;
7213;SDS011;3648;50.614;13.830;2023-10-08T13:13:27;4.97;;;2.47;;
7213;SDS011;3648;50.614;13.830;2023-10-08T13:15:54;2.97;;;2.43;;
7213;SDS011;3648;50.614;13.830;2023-10-08T13:18:25;2.30;;;1.90;;
7213;SDS011;3648;50.614;13.830;2023-10-08T13:21:00;4.60;;;2.37;;
7213;SDS011;3648;50.614;13.830;2023-10-08T13:23:29;4.17;;;2.43;;
7213;SDS011;3648;50.614;13.830;2023-10-08T13:25:58;4.63;;;2.30;;
7213;SDS011;3648;50.614;13.830;2023-10-08T13:28:30;2.80;;;1.80;;
7213;SDS011;3648;50.614;13.830;2023-10-08T13:30:59;2.77;;;1.47;;
7213;SDS011;3648;50.614;13.830;2023-10-08T13:33:31;3.03;;;1.70;;
7213;SDS011;3648;50.614;13.830;2023-10-08T13:35:58;3.53;;;2.00;;
7213;SDS011;3648;50.614;13.830;2023-10-08T13:38:25;2.23;;;1.60;;
7213;SDS011;3648;50.614;13.830;2023-10-08T13:40:53;2.87;;;1.90;;
7213;SDS011;3648;50.614;13.830;2023-10-08T13:43:31;2.77;;;1.63;;
7213;SDS011;3648;50.614;13.830;2023-10-08T13:46:02;4.20;;;1.80;;
7213;SDS011;3648;50.614;13.830;2023-10-08T13:48:32;4.97;;;1.87;;
7213;SDS011;3648;50.614;13.830;2023-10-08T13:51:01;2.97;;;1.40;;
7213;SDS011;3648;50.614;13.830;2023-10-08T13:53:29;3.50;;;1.67;;
7213;SDS011;3648;50.614;13.830;2023-10-08T13:55:57;4.27;;;1.87;;
7213;SDS011;3648;50.614;13.830;2023-10-08T13:58:26;1.73;;;1.23;;
7213;SDS011;3648;50.614;13.830;2023-10-08T14:00:56;2.33;;;1.60;;
7213;SDS011;3648;50.614;13.830;2023-10-08T14:03:25;2.90;;;1.47;;
7213;SDS011;3648;50.614;13.830;2023-10-08T14:05:56;2.07;;;1.37;;
7213;SDS011;3648;50.614;13.830;2023-10-08T14:08:27;4.27;;;2.00;;
7213;SDS011;3648;50.614;13.830;2023-10-08T14:10:55;3.90;;;3.13;;
7213;SDS011;3648;50.614;13.830;2023-10-08T14:13:28;2.60;;;1.63;;
7213;SDS011;3648;50.614;13.830;2023-10-08T14:15:58;4.23;;;1.80;;
7213;SDS011;3648;50.614;13.830;2023-10-08T14:18:30;3.40;;;1.77;;
7213;SDS011;3648;50.614;13.830;2023-10-08T14:21:05;3.13;;;1.77;;
7213;SDS011;3648;50.614;13.830;2023-10-08T14:23:35;2.53;;;1.60;;
7213;SDS011;3648;50.614;13.830;2023-10-08T14:26:05;5.43;;;1.90;;
7213;SDS011;3648;50.614;13.830;2023-10-08T14:28:33;2.50;;;1.73;;
7213;SDS011;3648;50.614;13.830;2023-10-08T14:31:10;1.93;;;1.27;;
7213;SDS011;3648;50.614;13.830;2023-10-08T14:33:41;4.97;;;1.93;;
7213;SDS011;3648;50.614;13.830;2023-10-08T14:36:20;1.47;;;1.23;;
7213;SDS011;3648;50.614;13.830;2023-10-08T14:39:05;1.90;;;1.70;;
7213;SDS011;3648;50.614;13.830;2023-10-08T14:41:50;2.33;;;1.37;;
7213;SDS011;3648;50.614;13.830;2023-10-08T14:44:34;2.83;;;1.57;;
7213;SDS011;3648;50.614;13.830;2023-10-08T14:47:03;2.33;;;1.00;;
7213;SDS011;3648;50.614;13.830;2023-10-08T14:49:32;2.70;;;1.07;;
7213;SDS011;3648;50.614;13.830;2023-10-08T14:52:00;2.17;;;1.63;;
7213;SDS011;3648;50.614;13.830;2023-10-08T14:54:29;2.70;;;1.67;;
7213;SDS011;3648;50.614;13.830;2023-10-08T14:56:58;2.00;;;1.40;;
7213;SDS011;3648;50.614;13.830;2023-10-08T14:59:27;2.30;;;1.73;;
7213;SDS011;3648;50.614;13.830;2023-10-08T15:01:55;1.77;;;1.60;;
7213;SDS011;3648;50.614;13.830;2023-10-08T15:04:24;4.47;;;2.77;;
7213;SDS011;3648;50.614;13.830;2023-10-08T15:06:53;4.00;;;2.60;;
7213;SDS011;3648;50.614;13.830;2023-10-08T15:09:21;4.67;;;3.40;;
7213;SDS011;3648;50.614;13.830;2023-10-08T15:11:48;4.33;;;1.93;;
7213;SDS011;3648;50.614;13.830;2023-10-08T15:14:16;4.67;;;2.83;;
7213;SDS011;3648;50.614;13.830;2023-10-08T15:16:44;3.90;;;2.43;;
7213;SDS011;3648;50.614;13.830;2023-10-08T15:19:17;2.83;;;1.70;;
7213;SDS011;3648;50.614;13.830;2023-10-08T15:21:46;2.70;;;1.50;;
7213;SDS011;3648;50.614;13.830;2023-10-08T15:24:15;2.30;;;1.63;;
7213;SDS011;3648;50.614;13.830;2023-10-08T15:26:43;2.77;;;1.60;;
7213;SDS011;3648;50.614;13.830;2023-10-08T15:29:12;2.50;;;1.20;;
7213;SDS011;3648;50.614;13.830;2023-10-08T15:31:39;1.97;;;1.23;;